createdAt,value
2022-07-30T00:01:34.396Z,254.05
2022-07-30T00:04:03.377Z,295.05
2022-07-30T00:06:30.807Z,275.52
2022-07-30T00:08:58.639Z,271.30
2022-07-30T00:11:27.873Z,283.75
2022-07-30T00:13:55.963Z,285.57
2022-07-30T00:16:23.261Z,272.75
2022-07-30T00:18:50.273Z,283.23
2022-07-30T00:21:20.496Z,278.92
2022-07-30T00:24:02.656Z,261.65
2022-07-30T00:26:29.888Z,275.20
2022-07-30T00:28:57.077Z,278.52
2022-07-30T00:31:24.343Z,256.48
2022-07-30T00:33:51.188Z,207.30
2022-07-30T00:36:18.164Z,254.80
2022-07-30T00:38:45.544Z,242.63
2022-07-30T00:41:12.881Z,266.63
2022-07-30T00:43:43.804Z,250.30
2022-07-30T00:46:11.144Z,226.63
2022-07-30T00:48:38.327Z,276.38
2022-07-30T00:51:05.326Z,264.40
2022-07-30T00:53:33.284Z,274.75
2022-07-30T00:56:00.404Z,264.15
2022-07-30T00:58:27.628Z,256.90
2022-07-30T01:00:54.516Z,247.75
2022-07-30T01:03:21.721Z,236.52
2022-07-30T01:05:50.073Z,255.05
2022-07-30T01:08:17.113Z,259.30
2022-07-30T01:10:44.781Z,261.60
2022-07-30T01:13:12.712Z,256.38
2022-07-30T01:15:39.766Z,262.40
2022-07-30T01:18:10.046Z,263.67
2022-07-30T01:20:45.591Z,260.73
2022-07-30T01:23:25.133Z,287.98
2022-07-30T01:25:56.592Z,265.00
2022-07-30T01:28:51.429Z,307.50
2022-07-30T01:31:20.860Z,290.35
2022-07-30T01:33:49.493Z,313.45
2022-07-30T01:36:22.244Z,293.20
2022-07-30T01:38:51.266Z,276.58
2022-07-30T01:41:19.775Z,278.77
2022-07-30T01:43:47.405Z,294.65
2022-07-30T01:46:16.623Z,298.45
2022-07-30T01:48:46.808Z,291.60
2022-07-30T01:51:16.852Z,278.23
2022-07-30T01:53:49.979Z,321.95
2022-07-30T01:56:24.653Z,309.52
2022-07-30T01:58:54.196Z,293.02
2022-07-30T02:01:24.592Z,292.85
2022-07-30T02:03:57.883Z,274.42
2022-07-30T02:06:36.016Z,238.40
2022-07-30T02:09:11.309Z,271.08
2022-07-30T02:12:07.873Z,308.38
2022-07-30T02:14:43.331Z,318.27
2022-07-30T02:17:18.679Z,334.17
2022-07-30T02:19:49.846Z,320.80
2022-07-30T02:22:18.504Z,323.33
2022-07-30T02:24:47.896Z,326.05
2022-07-30T02:27:22.156Z,325.70
2022-07-30T02:29:51.696Z,322.23
2022-07-30T02:32:21.776Z,336.55
2022-07-30T02:34:55.739Z,333.88
2022-07-30T02:37:42.837Z,289.02
2022-07-30T02:40:15.935Z,293.58
2022-07-30T02:42:45.640Z,293.60
2022-07-30T02:45:17.764Z,300.35
2022-07-30T02:47:48.257Z,314.07
2022-07-30T02:50:17.568Z,290.60
2022-07-30T02:52:45.235Z,307.35
2022-07-30T02:55:13.098Z,321.17
2022-07-30T02:57:43.591Z,306.93
2022-07-30T03:00:12.674Z,283.45
2022-07-30T03:02:40.704Z,340.85
2022-07-30T03:05:13.629Z,362.50
2022-07-30T03:07:41.260Z,394.05
2022-07-30T03:10:09.019Z,375.83
2022-07-30T03:12:38.916Z,389.83
2022-07-30T03:15:06.385Z,390.02
2022-07-30T03:17:44.719Z,420.42
2022-07-30T03:20:15.478Z,357.73
2022-07-30T03:22:45.295Z,363.10
2022-07-30T03:25:16.472Z,393.88
2022-07-30T03:27:46.608Z,415.17
2022-07-30T03:30:13.964Z,430.57
2022-07-30T03:32:41.419Z,440.50
2022-07-30T03:35:17.114Z,438.40
2022-07-30T03:37:46.297Z,434.87
2022-07-30T03:40:14.472Z,439.95
2022-07-30T03:42:41.814Z,449.53
2022-07-30T03:45:10.557Z,460.77
2022-07-30T03:47:40.295Z,464.53
2022-07-30T03:50:08.394Z,435.98
2022-07-30T03:52:40.913Z,454.80
2022-07-30T03:55:11.676Z,433.55
2022-07-30T03:57:38.668Z,417.15
2022-07-30T04:00:12.787Z,445.70
2022-07-30T04:02:49.170Z,508.77
2022-07-30T04:05:18.740Z,479.23
2022-07-30T04:07:47.356Z,486.63
2022-07-30T04:10:17.097Z,435.00
2022-07-30T04:13:09.426Z,485.55
2022-07-30T04:16:37.206Z,452.77
2022-07-30T04:18:51.972Z,483.85
2022-07-30T04:21:25.006Z,507.63
2022-07-30T04:24:04.286Z,479.52
2022-07-30T04:26:35.684Z,475.65
2022-07-30T04:29:07.497Z,480.02
2022-07-30T04:31:38.414Z,485.20
2022-07-30T04:34:48.271Z,410.05
2022-07-30T04:37:18.932Z,366.13
2022-07-30T04:39:46.120Z,506.90
2022-07-30T04:42:13.090Z,507.48
2022-07-30T04:44:41.031Z,481.25
2022-07-30T04:47:24.672Z,388.27
2022-07-30T04:50:12.388Z,437.90
2022-07-30T04:52:40.132Z,483.47
2022-07-30T04:55:11.147Z,496.67
2022-07-30T04:57:42.495Z,513.65
2022-07-30T05:00:09.955Z,484.15
2022-07-30T05:02:41.580Z,400.70
2022-07-30T05:05:10.803Z,441.00
2022-07-30T05:07:39.379Z,460.63
2022-07-30T05:10:08.975Z,483.23
2022-07-30T05:12:39.969Z,478.17
2022-07-30T05:15:09.617Z,446.55
2022-07-30T05:17:37.931Z,446.77
2022-07-30T05:20:08.271Z,429.92
2022-07-30T05:22:52.467Z,474.25
2022-07-30T05:25:21.430Z,427.23
2022-07-30T05:27:51.253Z,437.77
2022-07-30T05:30:18.123Z,457.17
2022-07-30T05:32:49.259Z,462.42
2022-07-30T05:35:16.972Z,557.40
2022-07-30T05:37:43.929Z,598.38
2022-07-30T05:40:12.003Z,564.55
2022-07-30T05:42:38.813Z,563.47
2022-07-30T05:45:08.594Z,533.33
2022-07-30T05:47:35.702Z,473.17
2022-07-30T05:50:05.182Z,554.15
2022-07-30T05:52:33.620Z,563.45
2022-07-30T05:55:11.199Z,563.95
2022-07-30T05:57:53.442Z,388.67
2022-07-30T06:00:20.675Z,356.25
2022-07-30T06:02:54.013Z,373.67
2022-07-30T06:05:27.313Z,527.20
2022-07-30T06:07:57.650Z,515.40
2022-07-30T06:10:26.452Z,512.47
2022-07-30T06:12:55.639Z,555.10
2022-07-30T06:15:26.354Z,561.75
2022-07-30T06:17:59.479Z,550.63
2022-07-30T06:20:54.283Z,544.60
2022-07-30T06:23:39.579Z,579.10
2022-07-30T06:26:17.209Z,589.83
2022-07-30T06:28:44.309Z,562.70
2022-07-30T06:31:22.836Z,585.97
2022-07-30T06:33:49.739Z,579.80
2022-07-30T06:36:16.712Z,597.75
2022-07-30T06:38:53.300Z,582.17
2022-07-30T06:41:30.094Z,591.40
2022-07-30T06:43:58.601Z,480.80
2022-07-30T06:46:41.866Z,598.47
2022-07-30T06:49:10.714Z,584.42
2022-07-30T06:51:37.637Z,417.90
2022-07-30T06:54:04.486Z,552.20
2022-07-30T06:56:34.151Z,677.63
2022-07-30T06:59:04.449Z,673.58
2022-07-30T07:01:53.978Z,668.45
2022-07-30T07:04:21.452Z,629.75
2022-07-30T07:06:48.325Z,621.08
2022-07-30T07:09:23.974Z,581.65
2022-07-30T07:12:07.186Z,659.53
2022-07-30T07:14:34.008Z,616.67
2022-07-30T07:17:01.722Z,504.42
2022-07-30T07:20:05.409Z,562.85
2022-07-30T07:22:46.660Z,481.35
2022-07-30T07:25:14.186Z,513.42
2022-07-30T07:27:41.806Z,492.20
2022-07-30T07:30:09.131Z,524.30
2022-07-30T07:32:37.421Z,492.05
2022-07-30T07:35:05.901Z,456.80
2022-07-30T07:37:34.911Z,368.77
2022-07-30T07:40:03.594Z,390.45
2022-07-30T07:42:33.875Z,352.23
2022-07-30T07:45:01.240Z,362.87
2022-07-30T07:47:51.572Z,417.88
2022-07-30T07:50:54.949Z,441.40
2022-07-30T07:53:28.239Z,363.58
2022-07-30T07:55:57.159Z,523.65
2022-07-30T07:58:26.117Z,432.35
2022-07-30T08:00:56.068Z,458.33
2022-07-30T08:03:33.126Z,383.65
2022-07-30T08:06:06.903Z,313.88
2022-07-30T08:08:47.640Z,405.15
2022-07-30T08:11:33.076Z,392.77
2022-07-30T08:14:22.904Z,327.10
2022-07-30T08:17:19.946Z,329.85
2022-07-30T08:20:07.375Z,317.55
2022-07-30T08:22:34.518Z,356.92
2022-07-30T08:25:03.815Z,473.67
2022-07-30T08:27:31.442Z,458.50
2022-07-30T08:29:59.221Z,532.60
2022-07-30T08:32:26.061Z,521.07
2022-07-30T08:34:53.198Z,457.38
2022-07-30T08:37:21.211Z,546.80
2022-07-30T08:39:48.076Z,532.47
2022-07-30T08:42:15.111Z,525.25
2022-07-30T08:44:44.179Z,437.42
2022-07-30T08:47:15.095Z,524.05
2022-07-30T08:50:05.104Z,598.07
2022-07-30T08:52:36.912Z,669.20
2022-07-30T08:55:07.640Z,647.28
2022-07-30T08:57:35.678Z,683.17
2022-07-30T09:00:07.513Z,619.55
2022-07-30T09:02:34.439Z,685.17
2022-07-30T09:05:04.763Z,658.60
2022-07-30T09:07:34.005Z,688.50
2022-07-30T09:10:02.459Z,730.92
2022-07-30T09:12:44.961Z,834.05
2022-07-30T09:15:16.467Z,895.80
2022-07-30T09:17:49.113Z,602.05
2022-07-30T09:20:16.212Z,710.22
2022-07-30T09:22:45.657Z,765.83
2022-07-30T09:25:36.415Z,329.90
2022-07-30T09:28:32.130Z,389.73
2022-07-30T09:31:20.276Z,558.75
2022-07-30T09:34:24.914Z,291.05
2022-07-30T09:37:00.137Z,332.02
2022-07-30T09:39:35.539Z,328.05
2022-07-30T09:42:23.497Z,364.95
2022-07-30T09:44:52.559Z,390.95
2022-07-30T09:47:44.617Z,500.83
2022-07-30T09:50:13.603Z,562.00
2022-07-30T09:53:07.797Z,466.73
2022-07-30T09:55:41.227Z,506.73
2022-07-30T09:58:10.202Z,557.50
2022-07-30T10:00:42.703Z,607.28
2022-07-30T10:03:34.124Z,619.53
2022-07-30T10:06:34.513Z,725.10
2022-07-30T10:09:14.400Z,675.03
2022-07-30T10:11:46.187Z,663.63
2022-07-30T10:14:14.080Z,526.67
2022-07-30T10:16:41.213Z,481.25
2022-07-30T10:19:17.980Z,534.05
2022-07-30T10:22:20.361Z,572.83
2022-07-30T10:25:06.379Z,577.80
2022-07-30T10:27:57.814Z,549.58
2022-07-30T10:30:29.343Z,494.83
2022-07-30T10:32:58.503Z,607.78
2022-07-30T10:35:34.603Z,509.48
2022-07-30T10:38:09.863Z,540.00
2022-07-30T10:40:43.389Z,507.90
2022-07-30T10:43:36.818Z,573.25
2022-07-30T10:46:34.943Z,537.38
2022-07-30T10:49:17.393Z,588.35
2022-07-30T10:51:48.261Z,568.37
2022-07-30T10:54:33.904Z,522.05
2022-07-30T10:57:09.308Z,582.80
2022-07-30T11:00:05.202Z,535.83
2022-07-30T11:02:35.261Z,577.65
2022-07-30T11:05:18.684Z,480.85
2022-07-30T11:08:42.864Z,590.58
2022-07-30T11:11:59.176Z,557.50
2022-07-30T11:14:08.817Z,601.03
2022-07-30T11:16:35.541Z,640.42
2022-07-30T11:19:55.835Z,661.28
2022-07-30T11:22:22.630Z,667.40
2022-07-30T11:24:50.070Z,682.47
2022-07-30T11:27:38.741Z,747.17
2022-07-30T11:30:18.134Z,673.87
2022-07-30T11:32:48.347Z,691.38
2022-07-30T11:35:25.136Z,526.10
2022-07-30T11:38:02.708Z,635.43
2022-07-30T11:40:36.398Z,673.83
2022-07-30T11:43:34.859Z,649.40
2022-07-30T11:46:29.034Z,412.75
2022-07-30T11:49:04.670Z,643.75
2022-07-30T11:51:45.782Z,765.67
2022-07-30T11:54:13.915Z,639.88
2022-07-30T11:56:55.581Z,785.85
2022-07-30T11:59:22.646Z,573.88
2022-07-30T12:01:56.760Z,690.88
2022-07-30T12:04:24.469Z,689.58
2022-07-30T12:06:51.456Z,664.90
2022-07-30T12:09:23.384Z,687.75
2022-07-30T12:11:54.459Z,868.58
2022-07-30T12:14:21.276Z,528.05
2022-07-30T12:16:53.300Z,578.92
2022-07-30T12:19:20.198Z,566.83
2022-07-30T12:21:50.989Z,573.22
2022-07-30T12:24:25.355Z,633.17
2022-07-30T12:26:52.204Z,441.13
2022-07-30T12:29:19.162Z,619.63
2022-07-30T12:31:46.499Z,740.73
2022-07-30T12:34:21.694Z,673.83
2022-07-30T12:36:48.966Z,755.33
2022-07-30T12:39:26.784Z,595.57
2022-07-30T12:41:57.839Z,597.78
2022-07-30T12:44:42.124Z,746.47
2022-07-30T12:47:20.318Z,428.00
2022-07-30T12:49:49.627Z,420.70
2022-07-30T12:52:28.798Z,621.53
2022-07-30T12:55:08.919Z,595.55
2022-07-30T12:58:01.735Z,548.60
2022-07-30T13:00:52.805Z,483.17
2022-07-30T13:03:27.720Z,748.38
2022-07-30T13:05:56.346Z,531.80
2022-07-30T13:08:44.988Z,529.33
2022-07-30T13:11:12.249Z,483.03
2022-07-30T13:13:39.443Z,660.70
2022-07-30T13:16:07.447Z,452.27
2022-07-30T13:18:36.029Z,415.58
2022-07-30T13:21:04.630Z,432.77
2022-07-30T13:23:32.169Z,699.95
2022-07-30T13:25:59.402Z,761.22
2022-07-30T13:28:26.955Z,449.73
2022-07-30T13:30:53.882Z,649.28
2022-07-30T13:33:20.651Z,380.83
2022-07-30T13:35:47.572Z,485.57
2022-07-30T13:38:15.487Z,823.90
2022-07-30T13:40:42.546Z,485.83
2022-07-30T13:43:09.608Z,674.78
2022-07-30T13:45:36.876Z,673.08
2022-07-30T13:48:04.222Z,342.52
2022-07-30T13:50:31.260Z,346.20
2022-07-30T13:53:02.096Z,362.85
2022-07-30T13:55:29.826Z,849.15
2022-07-30T13:57:56.952Z,674.80
2022-07-30T14:00:24.538Z,364.50
2022-07-30T14:02:51.572Z,378.35
2022-07-30T14:05:18.455Z,376.27
2022-07-30T14:07:45.205Z,396.52
2022-07-30T14:10:11.955Z,405.10
2022-07-30T14:12:39.924Z,389.23
2022-07-30T14:15:07.343Z,411.13
2022-07-30T14:17:34.619Z,335.48
2022-07-30T14:20:01.955Z,324.77
2022-07-30T14:22:28.792Z,322.23
2022-07-30T14:24:55.665Z,335.80
2022-07-30T14:27:22.604Z,314.75
2022-07-30T14:29:49.455Z,358.45
2022-07-30T14:32:16.359Z,382.37
2022-07-30T14:34:49.468Z,400.77
2022-07-30T14:37:16.747Z,684.83
2022-07-30T14:39:43.592Z,561.65
2022-07-30T14:42:10.881Z,512.38
2022-07-30T14:44:37.763Z,544.13
2022-07-30T14:47:05.003Z,567.30
2022-07-30T14:49:32.058Z,510.42
2022-07-30T14:51:58.988Z,557.73
2022-07-30T14:54:27.755Z,575.40
2022-07-30T14:56:59.580Z,382.88
2022-07-30T14:59:27.471Z,491.23
2022-07-30T15:01:55.202Z,421.23
2022-07-30T15:04:22.467Z,392.95
2022-07-30T15:06:49.347Z,325.98
2022-07-30T15:09:16.190Z,354.35
2022-07-30T15:12:07.929Z,411.73
2022-07-30T15:14:30.059Z,482.40
2022-07-30T15:17:03.457Z,498.85
2022-07-30T15:19:31.220Z,493.08
2022-07-30T15:21:59.099Z,605.20
2022-07-30T15:24:26.302Z,527.72
2022-07-30T15:26:55.765Z,489.67
2022-07-30T15:29:24.081Z,468.42
2022-07-30T15:31:51.447Z,465.08
2022-07-30T15:34:18.366Z,464.60
2022-07-30T15:36:45.527Z,487.38
2022-07-30T15:39:13.355Z,387.70
2022-07-30T15:41:42.679Z,409.13
2022-07-30T15:44:09.666Z,408.48
2022-07-30T15:46:36.589Z,420.35
2022-07-30T15:49:03.533Z,436.65
2022-07-30T15:51:32.533Z,482.90
2022-07-30T15:53:59.672Z,506.40
2022-07-30T15:56:28.154Z,457.17
2022-07-30T15:58:55.378Z,461.45
2022-07-30T16:01:22.777Z,456.30
2022-07-30T16:03:49.656Z,433.98
2022-07-30T16:06:16.553Z,473.55
2022-07-30T16:08:43.295Z,473.63
2022-07-30T16:11:10.944Z,497.57
2022-07-30T16:13:38.159Z,520.63
2022-07-30T16:16:05.156Z,449.00
2022-07-30T16:18:32.056Z,539.42
2022-07-30T16:21:01.087Z,445.15
2022-07-30T16:23:28.635Z,485.13
2022-07-30T16:26:04.347Z,406.30
2022-07-30T16:28:31.586Z,512.63
2022-07-30T16:30:58.665Z,525.13
2022-07-30T16:33:25.494Z,546.50
2022-07-30T16:35:52.370Z,557.75
2022-07-30T16:38:20.184Z,560.53
2022-07-30T16:40:47.502Z,618.33
2022-07-30T16:43:15.578Z,567.72
2022-07-30T16:45:43.761Z,551.83
2022-07-30T16:48:11.411Z,603.67
2022-07-30T16:50:40.495Z,519.30
2022-07-30T16:53:14.243Z,525.90
2022-07-30T16:55:42.620Z,531.97
2022-07-30T16:58:10.095Z,548.13
2022-07-30T17:00:37.677Z,561.00
2022-07-30T17:03:04.816Z,510.20
2022-07-30T17:05:31.854Z,501.47
2022-07-30T17:07:58.925Z,557.08
2022-07-30T17:10:27.205Z,517.53
2022-07-30T17:12:57.132Z,425.33
2022-07-30T17:15:32.410Z,513.33
2022-07-30T17:18:00.963Z,552.72
2022-07-30T17:20:28.971Z,622.35
2022-07-30T17:22:56.110Z,607.80
2022-07-30T17:25:27.131Z,517.78
2022-07-30T17:27:58.355Z,485.33
2022-07-30T17:30:26.959Z,501.98
2022-07-30T17:32:54.014Z,537.00
2022-07-30T17:35:21.475Z,643.38
2022-07-30T17:37:48.337Z,572.30
2022-07-30T17:40:29.164Z,578.17
2022-07-30T17:43:05.786Z,587.63
2022-07-30T17:45:34.194Z,604.83
2022-07-30T17:48:03.822Z,533.15
2022-07-30T17:50:32.461Z,603.25
2022-07-30T17:52:59.907Z,594.92
2022-07-30T17:55:30.787Z,622.95
2022-07-30T17:57:57.643Z,521.97
2022-07-30T18:00:24.523Z,375.02
2022-07-30T18:02:51.368Z,493.95
2022-07-30T18:05:18.316Z,509.85
2022-07-30T18:07:45.220Z,520.10
2022-07-30T18:10:12.701Z,546.97
2022-07-30T18:12:49.081Z,599.63
2022-07-30T18:15:17.547Z,552.75
2022-07-30T18:17:44.647Z,358.17
2022-07-30T18:20:12.317Z,321.02
2022-07-30T18:22:40.303Z,393.77
2022-07-30T18:25:16.528Z,406.02
2022-07-30T18:27:45.634Z,376.42
2022-07-30T18:30:12.723Z,333.45
2022-07-30T18:32:39.562Z,326.73
2022-07-30T18:35:09.761Z,370.27
2022-07-30T18:37:41.667Z,344.42
2022-07-30T18:40:09.136Z,376.92
2022-07-30T18:42:36.005Z,376.50
2022-07-30T18:45:03.026Z,370.05
2022-07-30T18:47:29.798Z,359.25
2022-07-30T18:49:56.722Z,383.17
2022-07-30T18:52:23.674Z,388.83
2022-07-30T18:54:50.879Z,391.60
2022-07-30T18:57:17.965Z,390.33
2022-07-30T18:59:44.756Z,410.15
2022-07-30T19:02:11.666Z,417.50
2022-07-30T19:04:38.515Z,413.83
2022-07-30T19:07:07.115Z,395.90
2022-07-30T19:09:34.006Z,376.38
2022-07-30T19:12:01.129Z,347.10
2022-07-30T19:14:28.511Z,367.95
2022-07-30T19:16:59.403Z,370.45
2022-07-30T19:19:27.345Z,371.85
2022-07-30T19:21:54.436Z,359.27
2022-07-30T19:24:21.361Z,413.05
2022-07-30T19:26:48.732Z,309.52
2022-07-30T19:29:15.599Z,388.60
2022-07-30T19:31:42.485Z,422.20
2022-07-30T19:34:10.954Z,337.45
2022-07-30T19:36:38.418Z,348.35
2022-07-30T19:39:07.688Z,368.33
2022-07-30T19:41:40.488Z,354.10
2022-07-30T19:44:11.963Z,407.05
2022-07-30T19:46:39.308Z,442.70
2022-07-30T19:49:09.323Z,441.60
2022-07-30T19:52:17.702Z,385.55
2022-07-30T19:54:25.036Z,395.42
2022-07-30T19:56:52.274Z,402.42
2022-07-30T19:59:19.233Z,405.88
2022-07-30T20:02:06.317Z,400.27
2022-07-30T20:04:35.301Z,336.02
2022-07-30T20:07:02.186Z,359.33
2022-07-30T20:09:31.076Z,388.25
2022-07-30T20:11:59.933Z,341.10
2022-07-30T20:14:29.958Z,392.77
2022-07-30T20:16:56.810Z,373.13
2022-07-30T20:19:28.822Z,380.75
2022-07-30T20:22:03.030Z,400.05
2022-07-30T20:24:30.114Z,396.52
2022-07-30T20:26:58.046Z,402.10
2022-07-30T20:29:24.918Z,407.05
2022-07-30T20:31:51.964Z,399.37
2022-07-30T20:34:23.510Z,415.00
2022-07-30T20:36:52.849Z,357.20
2022-07-30T20:39:21.030Z,389.35
2022-07-30T20:41:47.981Z,402.27
2022-07-30T20:44:23.680Z,425.92
2022-07-30T20:46:52.490Z,398.48
2022-07-30T20:49:23.789Z,403.48
2022-07-30T20:52:01.454Z,386.48
2022-07-30T20:54:30.209Z,408.90
2022-07-30T20:56:57.386Z,415.88
2022-07-30T20:59:24.968Z,398.75
2022-07-30T21:01:51.777Z,363.60
2022-07-30T21:04:23.950Z,395.77
2022-07-30T21:06:52.460Z,410.85
2022-07-30T21:09:19.500Z,408.65
2022-07-30T21:11:50.361Z,422.50
2022-07-30T21:14:19.923Z,363.05
2022-07-30T21:16:46.839Z,370.65
2022-07-30T21:19:16.467Z,375.40
2022-07-30T21:21:48.216Z,395.20
2022-07-30T21:24:19.342Z,391.90
2022-07-30T21:26:48.760Z,389.35
2022-07-30T21:29:16.198Z,408.20
2022-07-30T21:32:01.514Z,407.27
2022-07-30T21:34:35.879Z,411.92
2022-07-30T21:37:07.736Z,394.60
2022-07-30T21:39:39.897Z,414.05
2022-07-30T21:42:08.465Z,337.70
2022-07-30T21:44:37.550Z,376.60
2022-07-30T21:47:05.714Z,350.97
2022-07-30T21:49:37.874Z,329.70
2022-07-30T21:52:05.352Z,364.53
2022-07-30T21:54:48.406Z,353.25
2022-07-30T21:57:26.413Z,382.88
2022-07-30T21:59:57.974Z,375.20
2022-07-30T22:02:25.498Z,392.15
2022-07-30T22:04:54.916Z,395.48
2022-07-30T22:07:22.118Z,365.33
2022-07-30T22:09:49.227Z,356.92
2022-07-30T22:12:18.228Z,351.02
2022-07-30T22:15:03.200Z,385.90
2022-07-30T22:17:36.899Z,400.48
2022-07-30T22:20:17.781Z,417.00
2022-07-30T22:22:46.326Z,367.42
2022-07-30T22:25:13.581Z,395.70
2022-07-30T22:27:55.918Z,411.02
2022-07-30T22:30:26.587Z,428.63
2022-07-30T22:32:54.355Z,450.42
2022-07-30T22:35:33.567Z,403.42
2022-07-30T22:38:01.765Z,384.65
2022-07-30T22:40:28.510Z,377.70
2022-07-30T22:42:55.427Z,370.92
2022-07-30T22:45:42.275Z,376.63
2022-07-30T22:48:10.243Z,379.15
2022-07-30T22:50:40.307Z,363.98
2022-07-30T22:53:23.678Z,373.67
2022-07-30T22:55:54.918Z,353.00
2022-07-30T22:58:22.165Z,373.77
2022-07-30T23:00:53.412Z,361.43
2022-07-30T23:03:21.050Z,375.10
2022-07-30T23:05:55.328Z,360.52
2022-07-30T23:08:30.281Z,311.75
2022-07-30T23:10:59.446Z,359.90
2022-07-30T23:13:27.267Z,371.60
2022-07-30T23:15:53.990Z,352.00
2022-07-30T23:18:20.804Z,345.50
2022-07-30T23:20:47.645Z,330.13
2022-07-30T23:23:15.065Z,354.73
2022-07-30T23:25:41.934Z,344.70
2022-07-30T23:28:08.700Z,359.58
2022-07-30T23:30:35.596Z,310.60
2022-07-30T23:33:02.683Z,361.67
2022-07-30T23:35:29.501Z,368.67
2022-07-30T23:37:57.306Z,354.10
2022-07-30T23:40:24.291Z,342.02
2022-07-30T23:42:51.790Z,321.17
2022-07-30T23:45:19.119Z,316.38
2022-07-30T23:48:01.966Z,269.87
2022-07-30T23:50:33.563Z,298.75
2022-07-30T23:53:01.941Z,284.80
2022-07-30T23:55:30.163Z,301.13
2022-07-30T23:57:57.862Z,259.95
